createdAt,value
2019-05-09T00:01:14.450Z,4.60
2019-05-09T00:03:44.359Z,4.70
2019-05-09T00:06:13.758Z,16.90
2019-05-09T00:08:44.178Z,8.03
2019-05-09T00:11:14.626Z,5.50
2019-05-09T00:13:44.168Z,5.17
2019-05-09T00:16:14.576Z,4.93
2019-05-09T00:18:44.199Z,5.70
2019-05-09T00:21:23.780Z,5.80
2019-05-09T00:23:54.012Z,5.40
2019-05-09T00:26:23.561Z,6.07
2019-05-09T00:28:55.930Z,6.03
2019-05-09T00:31:41.200Z,5.50
2019-05-09T00:34:14.345Z,6.10
2019-05-09T00:36:43.878Z,5.73
2019-05-09T00:39:13.358Z,5.70
2019-05-09T00:41:43.551Z,5.47
2019-05-09T00:44:19.449Z,5.40
2019-05-09T00:46:57.425Z,5.53
2019-05-09T00:49:26.939Z,5.93
2019-05-09T00:51:55.679Z,6.00
2019-05-09T00:54:24.579Z,5.63
2019-05-09T00:56:53.985Z,5.83
2019-05-09T00:59:24.119Z,5.73
2019-05-09T01:01:54.297Z,5.80
2019-05-09T01:04:24.152Z,6.43
2019-05-09T01:06:54.130Z,5.83
2019-05-09T01:09:24.214Z,6.17
2019-05-09T01:11:53.590Z,5.60
2019-05-09T01:14:23.469Z,5.97
2019-05-09T01:16:54.917Z,5.23
2019-05-09T01:19:26.086Z,5.87
2019-05-09T01:21:54.860Z,5.40
2019-05-09T01:24:23.648Z,5.10
2019-05-09T01:26:54.230Z,5.20
2019-05-09T01:29:23.335Z,4.53
2019-05-09T01:31:56.386Z,4.60
2019-05-09T01:34:28.526Z,4.90
2019-05-09T01:37:14.147Z,4.60
2019-05-09T01:39:45.356Z,4.40
2019-05-09T01:42:16.510Z,4.00
2019-05-09T01:44:45.320Z,3.93
2019-05-09T01:47:14.710Z,4.00
2019-05-09T01:49:43.554Z,3.87
2019-05-09T01:52:13.802Z,3.37
2019-05-09T01:54:44.394Z,3.73
2019-05-09T01:57:13.840Z,3.50
2019-05-09T01:59:44.391Z,3.37
2019-05-09T02:02:14.206Z,3.43
2019-05-09T02:04:44.023Z,3.87
2019-05-09T02:07:13.475Z,3.43
2019-05-09T02:09:43.467Z,3.10
2019-05-09T02:12:14.162Z,3.53
2019-05-09T02:15:08.107Z,3.10
2019-05-09T02:18:01.636Z,2.97
2019-05-09T02:20:26.552Z,2.90
2019-05-09T02:22:55.366Z,3.10
2019-05-09T02:25:24.324Z,2.90
2019-05-09T02:27:55.205Z,3.00
2019-05-09T02:30:25.410Z,2.77
2019-05-09T02:32:54.816Z,2.93
2019-05-09T02:35:29.323Z,2.90
2019-05-09T02:37:58.697Z,2.90
2019-05-09T02:40:28.884Z,3.20
2019-05-09T02:42:58.982Z,2.70
2019-05-09T02:45:31.695Z,3.02
2019-05-09T02:48:00.523Z,3.67
2019-05-09T02:50:29.304Z,3.33
2019-05-09T02:52:59.054Z,3.00
2019-05-09T02:55:28.851Z,3.53
2019-05-09T02:57:59.395Z,3.30
2019-05-09T03:00:48.188Z,3.30
2019-05-09T03:03:23.688Z,3.07
2019-05-09T03:05:52.618Z,3.60
2019-05-09T03:08:21.637Z,3.13
2019-05-09T03:10:50.480Z,3.40
2019-05-09T03:13:19.476Z,3.40
2019-05-09T03:15:50.677Z,3.30
2019-05-09T03:18:19.538Z,3.10
2019-05-09T03:21:03.936Z,3.13
2019-05-09T03:23:32.836Z,3.00
2019-05-09T03:26:01.704Z,3.07
2019-05-09T03:28:40.388Z,3.17
2019-05-09T03:31:10.148Z,3.40
2019-05-09T03:33:40.609Z,3.53
2019-05-09T03:36:09.495Z,3.07
2019-05-09T03:38:38.212Z,3.50
2019-05-09T03:41:08.530Z,3.23
2019-05-09T03:43:37.851Z,3.13
2019-05-09T03:46:18.129Z,3.30
2019-05-09T03:48:50.118Z,2.90
2019-05-09T03:51:19.209Z,3.20
2019-05-09T03:53:48.685Z,3.67
2019-05-09T03:56:20.818Z,3.13
2019-05-09T03:58:49.610Z,3.17
2019-05-09T04:01:18.404Z,3.10
2019-05-09T04:03:48.135Z,3.40
2019-05-09T04:06:18.433Z,3.10
2019-05-09T04:08:48.143Z,3.27
2019-05-09T04:11:18.476Z,3.27
2019-05-09T04:13:55.497Z,3.07
2019-05-09T04:16:24.457Z,3.20
2019-05-09T04:18:53.219Z,3.00
2019-05-09T04:21:21.999Z,2.90
2019-05-09T04:23:51.165Z,2.77
2019-05-09T04:26:43.854Z,3.50
2019-05-09T04:29:12.699Z,2.87
2019-05-09T04:31:41.453Z,3.20
2019-05-09T04:34:10.274Z,2.47
2019-05-09T04:36:39.222Z,3.30
2019-05-09T04:39:12.908Z,3.00
2019-05-09T04:41:40.575Z,3.00
2019-05-09T04:44:16.804Z,3.00
2019-05-09T04:46:43.338Z,2.90
2019-05-09T04:49:13.093Z,3.33
2019-05-09T04:51:41.894Z,2.90
2019-05-09T04:54:10.682Z,2.57
2019-05-09T04:56:41.127Z,3.10
2019-05-09T04:59:09.894Z,3.03
2019-05-09T05:01:47.755Z,2.93
2019-05-09T05:04:18.088Z,2.40
2019-05-09T05:06:47.779Z,3.00
2019-05-09T05:09:20.476Z,2.80
2019-05-09T05:11:49.075Z,2.60
2019-05-09T05:14:24.242Z,2.63
2019-05-09T05:16:55.699Z,2.60
2019-05-09T05:19:28.620Z,2.30
2019-05-09T05:22:00.087Z,2.60
2019-05-09T05:24:34.320Z,2.57
2019-05-09T05:27:03.184Z,2.03
2019-05-09T05:29:31.971Z,2.50
2019-05-09T05:32:02.420Z,2.47
2019-05-09T05:34:39.310Z,2.60
2019-05-09T05:37:08.262Z,2.40
2019-05-09T05:39:37.625Z,2.20
2019-05-09T05:42:08.272Z,2.10
2019-05-09T05:44:38.583Z,2.17
2019-05-09T05:47:15.378Z,1.90
2019-05-09T05:49:44.204Z,2.50
2019-05-09T05:52:12.983Z,2.30
2019-05-09T05:54:41.762Z,2.20
2019-05-09T05:57:12.916Z,2.40
2019-05-09T05:59:42.360Z,2.10
2019-05-09T06:02:11.139Z,2.10
2019-05-09T06:04:39.890Z,2.27
2019-05-09T06:07:08.868Z,2.00
2019-05-09T06:09:38.036Z,2.30
2019-05-09T06:12:08.202Z,2.27
2019-05-09T06:14:37.953Z,2.07
2019-05-09T06:17:07.921Z,2.27
2019-05-09T06:19:37.981Z,2.20
2019-05-09T06:22:08.293Z,2.07
2019-05-09T06:24:38.652Z,1.93
2019-05-09T06:27:10.413Z,2.03
2019-05-09T06:29:38.835Z,2.27
2019-05-09T06:32:08.106Z,2.40
2019-05-09T06:34:41.809Z,2.00
2019-05-09T06:37:08.916Z,2.30
2019-05-09T06:39:38.500Z,2.20
2019-05-09T06:42:08.928Z,2.33
2019-05-09T06:44:47.938Z,1.93
2019-05-09T06:47:24.677Z,2.17
2019-05-09T06:49:57.289Z,2.57
2019-05-09T06:52:28.058Z,1.97
2019-05-09T06:54:58.228Z,2.00
2019-05-09T06:57:28.062Z,2.00
2019-05-09T06:59:57.879Z,2.10
2019-05-09T07:02:49.133Z,2.00
2019-05-09T07:05:29.093Z,1.83
2019-05-09T07:08:04.249Z,2.07
2019-05-09T07:10:33.054Z,1.90
2019-05-09T07:13:01.850Z,1.70
2019-05-09T07:15:30.752Z,2.00
2019-05-09T07:17:59.607Z,1.80
2019-05-09T07:20:28.536Z,2.00
2019-05-09T07:22:58.341Z,2.07
2019-05-09T07:25:52.243Z,1.77
2019-05-09T07:28:21.268Z,1.87
2019-05-09T07:31:07.773Z,1.77
2019-05-09T07:33:47.850Z,2.17
2019-05-09T07:36:18.885Z,1.77
2019-05-09T07:38:47.843Z,1.90
2019-05-09T07:41:17.787Z,1.90
2019-05-09T07:43:47.838Z,1.60
2019-05-09T07:46:25.294Z,2.20
2019-05-09T07:48:54.561Z,2.10
2019-05-09T07:51:23.349Z,2.27
2019-05-09T07:53:52.313Z,1.80
2019-05-09T07:56:21.259Z,2.13
2019-05-09T07:58:50.067Z,2.23
2019-05-09T08:01:19.218Z,2.40
2019-05-09T08:03:48.981Z,2.27
2019-05-09T08:06:19.210Z,2.17
2019-05-09T08:08:47.979Z,2.27
2019-05-09T08:11:17.998Z,2.27
2019-05-09T08:13:48.635Z,2.50
2019-05-09T08:16:18.735Z,2.53
2019-05-09T08:18:48.407Z,2.10
2019-05-09T08:21:18.102Z,2.27
2019-05-09T08:23:48.595Z,1.90
2019-05-09T08:26:18.843Z,2.20
2019-05-09T08:28:48.208Z,2.43
2019-05-09T08:31:17.879Z,2.40
2019-05-09T08:33:48.488Z,2.57
2019-05-09T08:36:19.777Z,2.63
2019-05-09T08:38:47.991Z,2.70
2019-05-09T08:41:18.587Z,2.07
2019-05-09T08:43:48.354Z,1.97
2019-05-09T08:46:18.212Z,2.33
2019-05-09T08:48:48.548Z,2.30
2019-05-09T08:51:23.190Z,2.30
2019-05-09T08:53:51.958Z,2.33
2019-05-09T08:56:20.955Z,2.13
2019-05-09T08:58:49.745Z,2.43
2019-05-09T09:01:31.121Z,2.30
2019-05-09T09:03:49.183Z,2.00
2019-05-09T09:06:18.467Z,2.27
2019-05-09T09:08:48.322Z,2.10
2019-05-09T09:11:18.741Z,2.10
2019-05-09T09:13:48.390Z,4.30
2019-05-09T09:16:22.100Z,2.13
2019-05-09T09:18:48.258Z,2.80
2019-05-09T09:21:18.284Z,2.67
2019-05-09T09:23:50.585Z,2.47
2019-05-09T09:26:18.433Z,2.53
2019-05-09T09:28:48.462Z,2.70
2019-05-09T09:31:18.028Z,9.10
2019-05-09T09:33:48.031Z,3.00
2019-05-09T09:36:18.035Z,2.40
2019-05-09T09:38:48.046Z,2.50
2019-05-09T09:41:18.212Z,2.53
2019-05-09T09:43:47.761Z,2.27
2019-05-09T09:46:18.216Z,5.77
2019-05-09T09:48:48.036Z,2.47
2019-05-09T09:51:18.727Z,2.57
2019-05-09T09:53:48.890Z,2.50
2019-05-09T09:56:22.114Z,2.50
2019-05-09T09:58:57.765Z,2.40
2019-05-09T10:01:31.651Z,2.37
2019-05-09T10:04:19.634Z,2.97
2019-05-09T10:06:44.329Z,2.57
2019-05-09T10:09:13.151Z,2.20
2019-05-09T10:11:42.114Z,2.10
2019-05-09T10:14:13.921Z,2.30
2019-05-09T10:17:10.132Z,2.13
2019-05-09T10:20:00.763Z,2.23
2019-05-09T10:22:29.929Z,2.30
2019-05-09T10:24:58.841Z,2.33
2019-05-09T10:27:34.287Z,2.23
2019-05-09T10:30:04.421Z,2.27
2019-05-09T10:32:33.272Z,2.50
2019-05-09T10:35:02.150Z,2.07
2019-05-09T10:37:31.058Z,2.27
2019-05-09T10:39:59.821Z,2.60
2019-05-09T10:42:37.749Z,2.17
2019-05-09T10:45:20.649Z,2.37
2019-05-09T10:47:50.337Z,2.23
2019-05-09T10:50:19.195Z,2.40
2019-05-09T10:52:48.251Z,2.03
2019-05-09T10:55:17.955Z,2.00
2019-05-09T10:57:52.403Z,1.90
2019-05-09T11:01:18.432Z,2.47
2019-05-09T11:03:51.803Z,2.03
2019-05-09T11:06:38.229Z,1.97
2019-05-09T11:09:08.810Z,2.50
2019-05-09T11:11:38.539Z,2.67
2019-05-09T11:14:08.620Z,2.13
2019-05-09T11:16:45.838Z,2.10
2019-05-09T11:19:30.619Z,2.47
2019-05-09T11:22:08.647Z,2.30
2019-05-09T11:24:45.905Z,2.10
2019-05-09T11:27:08.604Z,3.00
2019-05-09T11:29:38.849Z,1.73
2019-05-09T11:32:08.174Z,1.93
2019-05-09T11:34:38.716Z,2.07
2019-05-09T11:37:08.463Z,2.33
2019-05-09T11:39:42.000Z,2.30
2019-05-09T11:42:08.122Z,2.20
2019-05-09T11:44:53.225Z,2.97
2019-05-09T11:47:32.373Z,2.90
2019-05-09T11:49:52.537Z,2.43
2019-05-09T11:52:22.439Z,2.90
2019-05-09T11:54:51.469Z,2.67
2019-05-09T11:57:21.059Z,2.30
2019-05-09T11:59:52.018Z,2.70
2019-05-09T12:02:20.976Z,2.70
2019-05-09T12:04:51.012Z,2.17
2019-05-09T12:07:19.959Z,2.23
2019-05-09T12:09:49.034Z,2.33
2019-05-09T12:12:19.545Z,2.43
2019-05-09T12:14:48.529Z,2.60
2019-05-09T12:17:19.662Z,2.53
2019-05-09T12:19:48.963Z,2.53
2019-05-09T12:22:19.251Z,2.40
2019-05-09T12:24:48.289Z,2.37
2019-05-09T12:27:18.793Z,2.23
2019-05-09T12:29:48.782Z,2.57
2019-05-09T12:32:18.947Z,3.07
2019-05-09T12:34:48.064Z,2.60
2019-05-09T12:37:18.386Z,3.27
2019-05-09T12:39:48.946Z,2.70
2019-05-09T12:42:18.734Z,3.53
2019-05-09T12:44:49.544Z,3.50
2019-05-09T12:47:23.729Z,3.77
2019-05-09T12:49:54.089Z,3.80
2019-05-09T12:52:23.000Z,3.50
2019-05-09T12:54:52.057Z,3.77
2019-05-09T12:57:20.891Z,3.83
2019-05-09T12:59:52.749Z,3.87
2019-05-09T13:02:20.543Z,4.03
2019-05-09T13:04:49.603Z,3.80
2019-05-09T13:07:19.527Z,3.40
2019-05-09T13:09:52.593Z,3.83
2019-05-09T13:12:18.967Z,3.23
2019-05-09T13:14:48.603Z,2.73
2019-05-09T13:17:31.838Z,3.00
2019-05-09T13:20:00.826Z,3.83
2019-05-09T13:22:31.506Z,3.90
2019-05-09T13:25:02.852Z,3.30
2019-05-09T13:27:30.914Z,2.73
2019-05-09T13:30:00.039Z,2.63
2019-05-09T13:33:01.034Z,3.73
2019-05-09T13:35:29.958Z,4.17
2019-05-09T13:38:00.787Z,5.20
2019-05-09T13:40:32.680Z,4.67
2019-05-09T13:43:02.266Z,4.80
2019-05-09T13:45:31.197Z,4.90
2019-05-09T13:48:00.047Z,5.67
2019-05-09T13:50:28.876Z,4.63
2019-05-09T13:52:58.263Z,5.00
2019-05-09T13:55:29.015Z,4.97
2019-05-09T13:57:59.445Z,4.77
2019-05-09T14:00:28.762Z,4.90
2019-05-09T14:02:58.787Z,4.67
2019-05-09T14:05:29.112Z,4.70
2019-05-09T14:08:03.311Z,4.97
2019-05-09T14:10:32.940Z,4.60
2019-05-09T14:13:09.394Z,4.93
2019-05-09T14:15:32.292Z,4.30
2019-05-09T14:18:01.148Z,4.60
2019-05-09T14:20:30.410Z,4.80
2019-05-09T14:23:01.467Z,4.37
2019-05-09T14:25:31.971Z,4.30
2019-05-09T14:28:00.771Z,4.43
2019-05-09T14:30:29.600Z,4.40
2019-05-09T14:33:00.279Z,3.93
2019-05-09T14:35:31.740Z,3.40
2019-05-09T14:38:00.662Z,3.40
2019-05-09T14:40:29.472Z,4.23
2019-05-09T14:42:58.617Z,3.43
2019-05-09T14:45:28.039Z,3.37
2019-05-09T14:47:58.789Z,4.50
2019-05-09T14:50:28.582Z,3.60
2019-05-09T14:52:58.526Z,3.63
2019-05-09T14:55:28.529Z,3.20
2019-05-09T14:57:57.952Z,2.80
2019-05-09T15:00:29.282Z,3.00
2019-05-09T15:02:59.377Z,2.80
2019-05-09T15:05:28.237Z,2.65
2019-05-09T15:07:59.368Z,2.90
2019-05-09T15:10:28.759Z,2.50
2019-05-09T15:12:58.570Z,2.33
2019-05-09T15:15:32.312Z,1.97
2019-05-09T15:17:58.676Z,2.53
2019-05-09T15:20:29.293Z,2.07
2019-05-09T15:22:59.075Z,2.33
2019-05-09T15:25:28.309Z,2.10
2019-05-09T15:27:59.249Z,2.20
2019-05-09T15:30:28.869Z,2.17
2019-05-09T15:33:02.268Z,2.40
2019-05-09T15:35:31.135Z,1.97
2019-05-09T15:38:00.771Z,2.10
2019-05-09T15:40:32.433Z,2.30
2019-05-09T15:43:01.444Z,1.63
2019-05-09T15:45:34.759Z,1.73
2019-05-09T15:48:07.706Z,2.60
2019-05-09T15:50:38.154Z,1.87
2019-05-09T15:53:08.541Z,1.93
2019-05-09T15:55:37.376Z,1.87
2019-05-09T15:58:06.257Z,2.40
2019-05-09T16:00:35.208Z,2.23
2019-05-09T16:03:04.405Z,2.03
2019-05-09T16:05:33.577Z,2.70
2019-05-09T16:08:02.483Z,2.83
2019-05-09T16:10:32.087Z,2.60
2019-05-09T16:13:00.863Z,3.10
2019-05-09T16:15:29.688Z,2.20
2019-05-09T16:17:58.630Z,2.33
2019-05-09T16:20:37.448Z,2.37
2019-05-09T16:22:58.918Z,2.27
2019-05-09T16:25:28.425Z,2.40
2019-05-09T16:27:58.692Z,2.37
2019-05-09T16:30:28.949Z,2.20
2019-05-09T16:32:59.630Z,2.80
2019-05-09T16:35:31.833Z,2.27
2019-05-09T16:38:18.531Z,2.30
2019-05-09T16:40:47.999Z,2.20
2019-05-09T16:43:17.798Z,2.20
2019-05-09T16:45:47.779Z,2.20
2019-05-09T16:48:18.623Z,2.03
2019-05-09T16:51:00.725Z,2.00
2019-05-09T16:53:20.500Z,2.13
2019-05-09T16:55:57.787Z,2.50
2019-05-09T16:58:30.192Z,1.90
2019-05-09T17:01:22.105Z,2.73
2019-05-09T17:03:52.000Z,2.23
2019-05-09T17:06:23.095Z,2.20
2019-05-09T17:08:55.035Z,2.37
2019-05-09T17:11:24.728Z,2.50
2019-05-09T17:14:00.763Z,2.37
2019-05-09T17:16:29.746Z,2.13
2019-05-09T17:18:58.604Z,2.10
2019-05-09T17:21:37.628Z,2.83
2019-05-09T17:24:09.798Z,2.77
2019-05-09T17:26:38.642Z,2.70
2019-05-09T17:29:08.604Z,2.40
2019-05-09T17:31:40.804Z,2.03
2019-05-09T17:34:28.700Z,2.93
2019-05-09T17:37:01.857Z,2.20
2019-05-09T17:39:32.388Z,2.43
2019-05-09T17:42:01.453Z,2.67
2019-05-09T17:44:32.100Z,2.40
2019-05-09T17:47:01.096Z,2.67
2019-05-09T17:49:29.912Z,2.70
2019-05-09T17:51:58.743Z,2.50
2019-05-09T17:54:28.991Z,2.60
2019-05-09T17:56:58.647Z,2.43
2019-05-09T17:59:29.280Z,2.23
2019-05-09T18:01:59.174Z,2.20
2019-05-09T18:04:33.323Z,2.20
2019-05-09T18:07:03.042Z,2.80
2019-05-09T18:09:33.936Z,2.13
2019-05-09T18:12:02.837Z,2.53
2019-05-09T18:14:35.258Z,2.17
2019-05-09T18:17:04.633Z,2.00
2019-05-09T18:19:37.932Z,2.17
2019-05-09T18:22:08.200Z,2.40
2019-05-09T18:24:39.932Z,2.73
2019-05-09T18:27:09.788Z,2.90
2019-05-09T18:29:51.289Z,2.93
2019-05-09T18:32:38.197Z,3.00
2019-05-09T18:35:37.876Z,2.07
2019-05-09T18:38:07.939Z,2.97
2019-05-09T18:40:47.910Z,2.40
2019-05-09T18:43:20.796Z,2.23
2019-05-09T18:45:49.640Z,2.57
2019-05-09T18:48:22.954Z,2.37
2019-05-09T18:50:56.023Z,2.50
2019-05-09T18:53:27.242Z,2.40
2019-05-09T18:55:57.555Z,2.50
2019-05-09T18:58:39.317Z,2.93
2019-05-09T19:01:08.441Z,2.80
2019-05-09T19:03:39.520Z,2.50
2019-05-09T19:06:08.454Z,2.93
2019-05-09T19:08:37.239Z,2.47
2019-05-09T19:11:06.183Z,2.70
2019-05-09T19:13:35.589Z,2.33
2019-05-09T19:16:22.125Z,2.40
2019-05-09T19:18:57.414Z,2.13
2019-05-09T19:21:36.929Z,3.47
2019-05-09T19:24:17.393Z,2.60
2019-05-09T19:26:47.878Z,3.07
2019-05-09T19:29:18.375Z,2.70
2019-05-09T19:31:47.455Z,3.07
2019-05-09T19:34:17.035Z,2.90
2019-05-09T19:36:46.382Z,3.13
2019-05-09T19:39:15.324Z,3.10
2019-05-09T19:41:46.574Z,3.53
2019-05-09T19:44:17.380Z,3.10
2019-05-09T19:46:46.254Z,3.07
2019-05-09T19:49:15.089Z,3.33
2019-05-09T19:51:52.130Z,3.40
2019-05-09T19:54:22.231Z,3.57
2019-05-09T19:56:52.373Z,3.60
2019-05-09T19:59:21.180Z,4.33
2019-05-09T20:01:50.347Z,3.97
2019-05-09T20:04:19.247Z,3.80
2019-05-09T20:06:48.361Z,4.37
2019-05-09T20:09:26.378Z,3.97
2019-05-09T20:12:04.670Z,4.23
2019-05-09T20:14:39.588Z,3.97
2019-05-09T20:17:12.132Z,4.87
2019-05-09T20:19:41.264Z,4.30
2019-05-09T20:22:11.328Z,4.70
2019-05-09T20:24:40.414Z,4.20
2019-05-09T20:27:09.448Z,9.90
2019-05-09T20:29:38.248Z,4.57
2019-05-09T20:32:07.168Z,9.50
2019-05-09T20:34:36.504Z,5.47
2019-05-09T20:37:05.982Z,4.70
2019-05-09T20:39:34.962Z,4.17
2019-05-09T20:42:04.010Z,5.53
2019-05-09T20:44:33.737Z,4.93
2019-05-09T20:47:02.840Z,4.73
2019-05-09T20:49:31.885Z,5.00
2019-05-09T20:52:00.901Z,4.47
2019-05-09T20:54:29.985Z,4.47
2019-05-09T20:56:59.270Z,4.83
2019-05-09T20:59:28.247Z,4.70
2019-05-09T21:01:57.952Z,4.67
2019-05-09T21:04:26.873Z,4.67
2019-05-09T21:06:56.523Z,4.40
2019-05-09T21:09:26.713Z,5.20
2019-05-09T21:11:55.765Z,5.10
2019-05-09T21:14:24.758Z,5.00
2019-05-09T21:16:55.062Z,4.63
2019-05-09T21:19:24.441Z,5.50
2019-05-09T21:21:53.481Z,4.90
2019-05-09T21:24:22.512Z,4.47
2019-05-09T21:26:51.740Z,4.17
2019-05-09T21:29:21.040Z,4.87
2019-05-09T21:31:50.158Z,5.17
2019-05-09T21:34:19.818Z,5.20
2019-05-09T21:36:50.555Z,5.57
2019-05-09T21:39:23.183Z,5.70
2019-05-09T21:41:52.071Z,5.63
2019-05-09T21:44:21.083Z,5.07
2019-05-09T21:46:49.936Z,5.20
2019-05-09T21:49:18.747Z,5.30
2019-05-09T21:51:47.530Z,5.10
2019-05-09T21:54:16.335Z,5.30
2019-05-09T21:56:45.307Z,5.07
2019-05-09T21:59:14.097Z,6.10
2019-05-09T22:01:43.804Z,5.10
2019-05-09T22:04:12.684Z,5.47
2019-05-09T22:06:41.600Z,4.97
2019-05-09T22:09:10.755Z,5.40
2019-05-09T22:11:39.651Z,4.77
2019-05-09T22:14:08.611Z,3.73
2019-05-09T22:16:39.551Z,4.13
2019-05-09T22:19:08.512Z,4.37
2019-05-09T22:21:37.293Z,4.43
2019-05-09T22:24:06.097Z,4.70
2019-05-09T22:26:35.053Z,4.53
2019-05-09T22:29:03.920Z,4.93
2019-05-09T22:31:32.807Z,5.13
2019-05-09T22:34:01.624Z,4.80
2019-05-09T22:36:30.589Z,4.63
2019-05-09T22:38:59.367Z,5.13
2019-05-09T22:41:28.122Z,5.33
2019-05-09T22:43:57.039Z,5.03
2019-05-09T22:46:25.961Z,5.00
2019-05-09T22:48:54.987Z,5.37
2019-05-09T22:51:23.790Z,6.37
2019-05-09T22:53:52.628Z,5.40
2019-05-09T22:56:21.543Z,6.20
2019-05-09T22:58:50.344Z,5.80
2019-05-09T23:01:19.109Z,5.60
2019-05-09T23:03:47.929Z,6.00
2019-05-09T23:06:16.888Z,6.00
2019-05-09T23:08:45.768Z,5.50
2019-05-09T23:11:14.930Z,6.03
2019-05-09T23:13:53.021Z,6.70
2019-05-09T23:16:23.985Z,6.67
2019-05-09T23:18:53.121Z,6.53
2019-05-09T23:21:22.551Z,6.70
2019-05-09T23:23:54.334Z,6.70
2019-05-09T23:26:24.071Z,6.70
2019-05-09T23:28:53.069Z,6.40
2019-05-09T23:31:47.183Z,3.10
2019-05-09T23:34:16.050Z,2.40
2019-05-09T23:36:44.944Z,3.23
2019-05-09T23:39:37.600Z,2.70
2019-05-09T23:42:06.481Z,3.10
2019-05-09T23:44:35.270Z,3.07
2019-05-09T23:47:04.277Z,3.20
2019-05-09T23:49:33.107Z,3.50
2019-05-09T23:52:02.099Z,3.70
2019-05-09T23:54:48.646Z,3.43
2019-05-09T23:57:35.596Z,3.53
